UAE4TR KJFK-OMDB
Flight info
| Callsign | UAE4TR |
|---|---|
| Flight time | N/A |
| Altitude | 33000 |
| Route | GREKI DCT JUDDS DCT CAM DCT EBONY N633A RIKAL/M085F360 NATS SOVED/N0486F370 DCT LUTOV DCT MAKUX DCT SOSIM L15 MOTOX DCT RUCAC DCT LESDO DCT ETINO DCT DEVDI DCT RIPUS/N0486F390 DCT RESIA DCT BELOV DCT LATAN DCT SALUN N705 MMA P751 DASUM Y234 FYM M872 WEJ/N0487F410 M872 BDB Y214 RAPMA DCT KUVSO DCT KATIT DCT PEKEM M628 RIGIL G783 ELUDA/N0505F350 G783 ASPED Q308 KIPOK Q568 IMPED |
| Aircraft | A359/H-SDE2E3GHIJ3J4J5LM1ORWXY/LB1D1 |
Departure
| Time | N/A |
|---|---|
| Airport | John F. Kennedy International Airport (KJFK) |
Arrival
| Time | 2026-05-06 13:12 |
|---|---|
| Airport | Dubai International Airport (OMDB) |
| Time | Latitude | Longitude | Altitude | Speed | Heading |
|---|---|---|---|---|---|
| 2026-05-06 12:28 | 22.89892 | 52.12928 | 33700 ft | 541 kts | 107° |
| 2026-05-06 12:28 | 22.89208 | 52.16929 | 33712 ft | 540 kts | 96° |
| 2026-05-06 12:28 | 22.89230 | 52.25047 | 33709 ft | 539 kts | 88° |
| 2026-05-06 12:29 | 22.89725 | 52.33152 | 33715 ft | 539 kts | 86° |
| 2026-05-06 12:29 | 22.90245 | 52.41248 | 33711 ft | 538 kts | 86° |
| 2026-05-06 12:30 | 22.90709 | 52.49348 | 33713 ft | 538 kts | 87° |
| 2026-05-06 12:30 | 22.91139 | 52.57438 | 33712 ft | 537 kts | 87° |
| 2026-05-06 12:31 | 22.91560 | 52.65532 | 33713 ft | 537 kts | 87° |
| 2026-05-06 12:31 | 22.91978 | 52.73623 | 33713 ft | 537 kts | 87° |
| 2026-05-06 12:32 | 22.92394 | 52.81716 | 33718 ft | 537 kts | 87° |
| 2026-05-06 12:32 | 22.92803 | 52.89759 | 33717 ft | 537 kts | 87° |
| 2026-05-06 12:33 | 22.93212 | 52.97854 | 33720 ft | 537 kts | 87° |
| 2026-05-06 12:33 | 22.93616 | 53.05953 | 33722 ft | 537 kts | 87° |
| 2026-05-06 12:34 | 22.94016 | 53.14046 | 33721 ft | 537 kts | 87° |
| 2026-05-06 12:34 | 22.94412 | 53.22144 | 33721 ft | 537 kts | 87° |
| 2026-05-06 12:35 | 22.94804 | 53.30251 | 33721 ft | 537 kts | 87° |
| 2026-05-06 12:35 | 22.95191 | 53.38353 | 33722 ft | 537 kts | 87° |
| 2026-05-06 12:36 | 22.95574 | 53.46445 | 33724 ft | 537 kts | 87° |
| 2026-05-06 12:36 | 22.95953 | 53.54542 | 33723 ft | 537 kts | 87° |
| 2026-05-06 12:37 | 22.96329 | 53.62629 | 33726 ft | 536 kts | 87° |
| 2026-05-06 12:37 | 22.96699 | 53.70705 | 33728 ft | 536 kts | 87° |
| 2026-05-06 12:38 | 22.97062 | 53.78728 | 33727 ft | 535 kts | 87° |
| 2026-05-06 12:38 | 22.97608 | 53.86786 | 33727 ft | 535 kts | 80° |
| 2026-05-06 12:39 | 22.99901 | 53.94410 | 33724 ft | 532 kts | 60° |
| 2026-05-06 12:39 | 23.04038 | 54.01028 | 33732 ft | 529 kts | 50° |
| 2026-05-06 12:40 | 23.08679 | 54.07201 | 33732 ft | 528 kts | 47° |
| 2026-05-06 12:40 | 23.13384 | 54.13342 | 33733 ft | 529 kts | 48° |
| 2026-05-06 12:41 | 23.18043 | 54.19531 | 33733 ft | 529 kts | 48° |
| 2026-05-06 12:41 | 23.22673 | 54.25759 | 33732 ft | 529 kts | 49° |
| 2026-05-06 12:42 | 23.27291 | 54.31995 | 33735 ft | 529 kts | 49° |
| 2026-05-06 12:42 | 23.31874 | 54.38188 | 33736 ft | 529 kts | 49° |
| 2026-05-06 12:43 | 23.36485 | 54.44423 | 33735 ft | 529 kts | 49° |
| 2026-05-06 12:43 | 23.41096 | 54.50664 | 33744 ft | 529 kts | 49° |
| 2026-05-06 12:44 | 23.45703 | 54.56907 | 33735 ft | 528 kts | 49° |
| 2026-05-06 12:44 | 23.50306 | 54.63153 | 33736 ft | 528 kts | 49° |
| 2026-05-06 12:45 | 23.54903 | 54.69397 | 33735 ft | 529 kts | 49° |
| 2026-05-06 12:46 | 23.61803 | 54.78786 | 33738 ft | 529 kts | 48° |
| 2026-05-06 12:46 | 23.66397 | 54.85047 | 33738 ft | 529 kts | 49° |
| 2026-05-06 12:47 | 23.70992 | 54.91317 | 33739 ft | 529 kts | 49° |
| 2026-05-06 12:47 | 23.75581 | 54.97587 | 33757 ft | 529 kts | 49° |
| 2026-05-06 12:48 | 23.80167 | 55.03860 | 33748 ft | 529 kts | 49° |
| 2026-05-06 12:48 | 23.84754 | 55.10143 | 33759 ft | 529 kts | 49° |
| 2026-05-06 12:49 | 23.89334 | 55.16423 | 33765 ft | 529 kts | 49° |
| 2026-05-06 12:49 | 23.93914 | 55.22713 | 33765 ft | 528 kts | 49° |
| 2026-05-06 12:50 | 23.98487 | 55.28999 | 33768 ft | 527 kts | 49° |
| 2026-05-06 12:50 | 24.00749 | 55.32112 | 33517 ft | 531 kts | 49° |
| 2026-05-06 12:50 | 24.03052 | 55.35280 | 33259 ft | 534 kts | 49° |
| 2026-05-06 12:50 | 24.05364 | 55.38464 | 33029 ft | 535 kts | 49° |
| 2026-05-06 12:51 | 24.07677 | 55.41653 | 32586 ft | 533 kts | 49° |
| 2026-05-06 12:51 | 24.09983 | 55.44835 | 31609 ft | 534 kts | 49° |
| 2026-05-06 12:51 | 24.12297 | 55.48028 | 30617 ft | 537 kts | 50° |
| 2026-05-06 12:51 | 24.14620 | 55.51235 | 29578 ft | 539 kts | 50° |
| 2026-05-06 12:52 | 24.16948 | 55.54455 | 28571 ft | 537 kts | 50° |
| 2026-05-06 12:52 | 24.19255 | 55.57649 | 27733 ft | 532 kts | 50° |
| 2026-05-06 12:52 | 24.21533 | 55.60806 | 26972 ft | 526 kts | 50° |
| 2026-05-06 12:52 | 24.23785 | 55.63927 | 26272 ft | 519 kts | 50° |
| 2026-05-06 12:53 | 24.26006 | 55.67007 | 25571 ft | 512 kts | 50° |
| 2026-05-06 12:53 | 24.28199 | 55.70050 | 24909 ft | 505 kts | 50° |
| 2026-05-06 12:53 | 24.30363 | 55.73054 | 24235 ft | 499 kts | 50° |
| 2026-05-06 12:53 | 24.32484 | 55.76000 | 23409 ft | 482 kts | 50° |
| 2026-05-06 12:54 | 24.34536 | 55.78852 | 22228 ft | 467 kts | 50° |
| 2026-05-06 12:54 | 24.36513 | 55.81603 | 21594 ft | 454 kts | 50° |
| 2026-05-06 12:54 | 24.38455 | 55.84303 | 20923 ft | 448 kts | 51° |
| 2026-05-06 12:54 | 24.40377 | 55.86975 | 20247 ft | 443 kts | 51° |
| 2026-05-06 12:55 | 24.42252 | 55.89583 | 19595 ft | 438 kts | 51° |
| 2026-05-06 12:55 | 24.44129 | 55.92195 | 18932 ft | 434 kts | 51° |
| 2026-05-06 12:55 | 24.45988 | 55.94783 | 18250 ft | 429 kts | 52° |
| 2026-05-06 12:55 | 24.47826 | 55.97345 | 17506 ft | 424 kts | 52° |
| 2026-05-06 12:56 | 24.49634 | 55.99870 | 16817 ft | 418 kts | 52° |
| 2026-05-06 12:56 | 24.51420 | 56.02365 | 16143 ft | 412 kts | 52° |
| 2026-05-06 12:56 | 24.53221 | 56.04788 | 15464 ft | 406 kts | 48° |
| 2026-05-06 12:56 | 24.55182 | 56.06993 | 14791 ft | 401 kts | 45° |
| 2026-05-06 12:57 | 24.57351 | 56.08889 | 14143 ft | 397 kts | 32° |
| 2026-05-06 12:57 | 24.59865 | 56.10071 | 13627 ft | 390 kts | 15° |
| 2026-05-06 12:57 | 24.62527 | 56.10374 | 13020 ft | 384 kts | 357° |
| 2026-05-06 12:57 | 24.65105 | 56.09736 | 12387 ft | 380 kts | 338° |
| 2026-05-06 12:58 | 24.67342 | 56.08226 | 11760 ft | 377 kts | 317° |
| 2026-05-06 12:58 | 24.68981 | 56.06037 | 11370 ft | 363 kts | 299° |
| 2026-05-06 12:58 | 24.70384 | 56.03850 | 11253 ft | 346 kts | 307° |
| 2026-05-06 12:58 | 24.72000 | 56.01965 | 11110 ft | 331 kts | 314° |
| 2026-05-06 12:59 | 24.73649 | 56.00286 | 10993 ft | 316 kts | 316° |
| 2026-05-06 12:59 | 24.75263 | 55.98720 | 10859 ft | 303 kts | 317° |
| 2026-05-06 12:59 | 24.76825 | 55.97242 | 10714 ft | 290 kts | 318° |
| 2026-05-06 12:59 | 24.78341 | 55.95830 | 10607 ft | 282 kts | 317° |
| 2026-05-06 13:00 | 24.79862 | 55.94477 | 10469 ft | 282 kts | 324° |
| 2026-05-06 13:00 | 24.81687 | 55.93645 | 10353 ft | 285 kts | 341° |
| 2026-05-06 13:00 | 24.83582 | 55.93019 | 10252 ft | 284 kts | 337° |
| 2026-05-06 13:00 | 24.85378 | 55.92113 | 9967 ft | 284 kts | 331° |
| 2026-05-06 13:01 | 24.87148 | 55.91047 | 9583 ft | 296 kts | 327° |
| 2026-05-06 13:01 | 24.88916 | 55.89875 | 9285 ft | 296 kts | 326° |
| 2026-05-06 13:01 | 24.90646 | 55.88678 | 8998 ft | 292 kts | 325° |
| 2026-05-06 13:01 | 24.92352 | 55.87478 | 8551 ft | 290 kts | 326° |
| 2026-05-06 13:02 | 24.94047 | 55.86283 | 8184 ft | 289 kts | 326° |
| 2026-05-06 13:02 | 24.95716 | 55.85114 | 7856 ft | 288 kts | 326° |
| 2026-05-06 13:02 | 24.97398 | 55.83940 | 7544 ft | 283 kts | 326° |
| 2026-05-06 13:02 | 24.98985 | 55.82726 | 7320 ft | 273 kts | 317° |
| 2026-05-06 13:03 | 25.00236 | 55.81207 | 7017 ft | 266 kts | 307° |
| 2026-05-06 13:03 | 25.01322 | 55.79568 | 6631 ft | 264 kts | 303° |
| 2026-05-06 13:03 | 25.02318 | 55.77874 | 6245 ft | 262 kts | 299° |
| 2026-05-06 13:03 | 25.03266 | 55.76154 | 5906 ft | 262 kts | 301° |
| 2026-05-06 13:04 | 25.04215 | 55.74459 | 5594 ft | 258 kts | 301° |
| 2026-05-06 13:04 | 25.05144 | 55.72787 | 5288 ft | 254 kts | 301° |
| 2026-05-06 13:04 | 25.06062 | 55.71131 | 4972 ft | 251 kts | 301° |
| 2026-05-06 13:04 | 25.06969 | 55.69501 | 4700 ft | 247 kts | 300° |
| 2026-05-06 13:05 | 25.07848 | 55.67921 | 4366 ft | 235 kts | 301° |
| 2026-05-06 13:05 | 25.08681 | 55.66424 | 4069 ft | 223 kts | 301° |
| 2026-05-06 13:05 | 25.09473 | 55.64998 | 3828 ft | 214 kts | 301° |
| 2026-05-06 13:05 | 25.10230 | 55.63631 | 3566 ft | 202 kts | 302° |
| 2026-05-06 13:06 | 25.10950 | 55.62331 | 3458 ft | 196 kts | 302° |
| 2026-05-06 13:06 | 25.11639 | 55.61085 | 3374 ft | 186 kts | 302° |
| 2026-05-06 13:06 | 25.12295 | 55.59899 | 3302 ft | 182 kts | 302° |
| 2026-05-06 13:06 | 25.12963 | 55.58693 | 3201 ft | 182 kts | 302° |
| 2026-05-06 13:07 | 25.13595 | 55.57550 | 3107 ft | 173 kts | 302° |
| 2026-05-06 13:07 | 25.14215 | 55.56429 | 3018 ft | 168 kts | 302° |
| 2026-05-06 13:07 | 25.14817 | 55.55340 | 2961 ft | 163 kts | 303° |
| 2026-05-06 13:07 | 25.15389 | 55.54310 | 2866 ft | 151 kts | 302° |
| 2026-05-06 13:08 | 25.15928 | 55.53337 | 2741 ft | 146 kts | 302° |
| 2026-05-06 13:08 | 25.16454 | 55.52385 | 2571 ft | 145 kts | 303° |
| 2026-05-06 13:08 | 25.16983 | 55.51430 | 2392 ft | 145 kts | 300° |
| 2026-05-06 13:08 | 25.17492 | 55.50510 | 2201 ft | 135 kts | 301° |
| 2026-05-06 13:09 | 25.17973 | 55.49641 | 2027 ft | 130 kts | 301° |
| 2026-05-06 13:09 | 25.18432 | 55.48806 | 1869 ft | 125 kts | 303° |
| 2026-05-06 13:09 | 25.18889 | 55.47982 | 1718 ft | 126 kts | 303° |
| 2026-05-06 13:09 | 25.19351 | 55.47152 | 1576 ft | 128 kts | 302° |
| 2026-05-06 13:10 | 25.19811 | 55.46317 | 1401 ft | 126 kts | 303° |
| 2026-05-06 13:10 | 25.20261 | 55.45500 | 1228 ft | 124 kts | 304° |
| 2026-05-06 13:10 | 25.20716 | 55.44667 | 1101 ft | 129 kts | 304° |
| 2026-05-06 13:10 | 25.21166 | 55.43811 | 994 ft | 132 kts | 303° |
| 2026-05-06 13:11 | 25.21646 | 55.42924 | 835 ft | 134 kts | 306° |
| 2026-05-06 13:11 | 25.22129 | 55.42060 | 632 ft | 134 kts | 306° |
| 2026-05-06 13:11 | 25.22612 | 55.41195 | 454 ft | 128 kts | 309° |
| 2026-05-06 13:11 | 25.23100 | 55.40355 | 296 ft | 133 kts | 305° |
| 2026-05-06 13:12 | 25.23584 | 55.39474 | 105 ft | 133 kts | 306° |
| 2026-05-06 13:12 | 25.24057 | 55.38644 | 39 ft | 120 kts | 303° |
| 2026-05-06 13:12 | 25.24426 | 55.37980 | 29 ft | 80 kts | 301° |
| 2026-05-06 13:12 | 25.24670 | 55.37621 | 23 ft | 35 kts | 327° |
| 2026-05-06 13:13 | 25.24753 | 55.37565 | 25 ft | 0 kts | 329° |
| 2026-05-06 13:13 | 25.24755 | 55.37564 | 24 ft | 4 kts | 327° |
| 2026-05-06 13:13 | 25.24803 | 55.37532 | 25 ft | 10 kts | 330° |
| 2026-05-06 13:13 | 25.24908 | 55.37460 | 30 ft | 18 kts | 317° |
| 2026-05-06 13:14 | 25.24982 | 55.37346 | 30 ft | 19 kts | 300° |
| 2026-05-06 13:14 | 25.25058 | 55.37208 | 27 ft | 22 kts | 298° |
| 2026-05-06 13:14 | 25.25043 | 55.37144 | 25 ft | 11 kts | 220° |
| 2026-05-06 13:14 | 25.24959 | 55.37067 | 22 ft | 17 kts | 214° |
| 2026-05-06 13:15 | 25.24847 | 55.37005 | 22 ft | 20 kts | 208° |
| 2026-05-06 13:15 | 25.24811 | 55.36906 | 29 ft | 4 kts | 257° |
| 2026-05-06 13:15 | 25.24811 | 55.36905 | 29 ft | 0 kts | 263° |
| 2026-05-06 13:15 | 25.24780 | 55.36796 | 33 ft | 27 kts | 249° |
| 2026-05-06 13:16 | 25.24717 | 55.36667 | 33 ft | 0 kts | 239° |
| 2026-05-06 13:16 | 25.24716 | 55.36666 | 33 ft | 0 kts | 239° |
| 2026-05-06 13:16 | 25.24707 | 55.36648 | 33 ft | 0 kts | 239° |